x

9439040 - Astoria, Or (asto3) Weather Station

6:30 - Fri 24th Apr 2015 All times are PDT. -7 hours from GMT.

  • Wind
    6mph, 8mph gusts
  • Sea Temp 54°f
  • Ar Temp 49°f
  • Sea Pressure 1012mb
  • 9439040 - Astoria, Or
  • 9439040 - Astoria, Or

More Historic Weather Station data

Upgrade to MSW Pro to gain access to the past 30 days of data for over 8000 Wavebouys and Weather Stations around the globe.

Join Pro

Comparision Forecast

View Surf forecast
   
Sex 04/24 6:30 6 8 mph 1012mb 54f 49f
6:24 7 8 mph 1012mb 54f 50f
6:18 7 10 mph 1012mb 54f 50f
6:12 8 11 mph 1012mb 54f 50f
6:06 10 14 mph 1012mb 54f 49f
6:00 13 18 mph 1012mb 54f 49f
5:54 16 21 mph 1012mb 54f 49f
5:48 9 13 mph 1011.9mb 54f 51f
5:42 13 15 mph 1011.9mb 54f 51f
5:36 15 17 mph 1011.9mb 54f 51f
5:30 11 15 mph 1011.9mb 54f 51f
5:24 13 16 mph 1011.9mb 54f 51f
5:18 10 13 mph 1011.9mb 54f 51f
5:12 10 14 mph 1012mb 54f 51f
5:06 11 16 mph 1012.1mb 54f 51f
5:00 11 16 mph 1012.1mb 54f 51f
4:54 14 20 mph 1012.1mb 54f 50f
4:48 16 21 mph 1012.1mb 54f 50f
4:42 16 20 mph 1012.1mb 54f 51f
4:36 15 17 mph 1012mb 54f 51f
4:30 15 18 mph 1012mb 54f 52f
4:24 16 20 mph 1011.9mb 54f 51f
4:18 16 20 mph 1011.9mb 54f 52f
4:12 17 21 mph 1011.9mb 54f 52f
4:06 16 20 mph 1011.8mb 54f 52f
4:00 14 18 mph 1011.8mb 54f 52f
3:54 14 18 mph 1011.8mb 54f 52f
3:48 14 21 mph 1011.7mb 54f 52f
3:42 16 20 mph 1011.8mb 54f 52f
3:36 15 21 mph 1011.7mb 54f 52f
3:30 15 21 mph 1011.6mb 54f 52f
3:24 15 23 mph 1011.7mb 54f 52f
3:18 17 23 mph 1011.7mb 54f 52f
3:12 15 24 mph 1011.8mb 54f 52f
3:06 20 23 mph 1011.8mb 54f 51f
3:00 16 22 mph 1011.7mb 54f 52f
2:54 16 23 mph 1011.7mb 54f 52f
2:48 17 23 mph 1011.6mb 54f 52f
2:42 20 24 mph 1011.6mb 54f 52f
2:36 16 22 mph 1011.6mb 54f 53f
2:30 17 20 mph 1011.5mb 54f 52f
2:24 17 23 mph 1011.4mb 54f 52f
2:18 14 21 mph 1011.3mb 54f 53f
2:12 18 22 mph 1011.3mb 54f 52f
2:06 14 21 mph 1011.2mb 54f 52f
2:00 14 17 mph 1011.2mb 54f 52f
1:54 14 17 mph 1011.1mb 54f 52f
1:48 11 21 mph 1011.1mb 54f 52f
1:42 15 18 mph 1011.1mb 54f 52f
1:36 13 20 mph 1011.1mb 54f 52f
1:30 15 18 mph 1011.1mb 54f 52f
1:24 15 23 mph 1011.1mb 54f 52f
1:18 18 23 mph 1011.1mb 54f 52f
1:12 15 22 mph 1011mb 54f 52f
1:06 14 18 mph 1011.1mb 54f 52f
1:00 14 17 mph 1011.1mb 54f 52f
12:54 14 22 mph 1011.2mb 54f 52f
12:48 16 21 mph 1011.3mb 54f 52f
12:42 17 21 mph 1011.4mb 55f 52f
12:36 13 20 mph 1011.4mb 54f 52f
12:30 15 21 mph 1011.5mb 53f 51f
12:24 18 21 mph 1011.5mb 53f 51f
12:18 15 18 mph 1011.5mb 53f 52f
12:12 16 22 mph 1011.5mb 53f 51f
12:06 13 18 mph 1011.3mb 53f 52f
12:00 13 17 mph 1011.3mb 53f 52f
11:54 10 18 mph 1011.3mb 53f 52f
11:48 11 20 mph 1011.4mb 53f 51f
11:42 14 21 mph 1011.4mb 53f 51f
11:36 10 15 mph 1011.4mb 53f 51f
11:30 11 14 mph 1011.4mb 53f 51f
11:24 11 15 mph 1011.4mb 53f 50f
11:18 8 10 mph 1011.4mb 53f 49f
11:12 7 8 mph 1011.4mb 53f 48f
11:06 7 11 mph 1011.5mb 53f 47f
11:00 14 29 mph 1011.7mb 53f 47f
10:54 25 31 mph 1011.7mb 53f 47f
10:48 15 21 mph 1011.2mb 53f 51f
10:42 14 18 mph 1011mb 53f 51f
10:36 15 22 mph 1010.9mb 53f 51f
10:30 13 17 mph 1010.9mb 53f 51f
10:24 15 21 mph 1010.8mb 53f 51f
10:18 13 16 mph 1010.8mb 53f 51f
10:12 11 16 mph 1010.8mb 53f 51f
10:06 13 16 mph 1010.8mb 53f 51f
10:00 13 18 mph 1010.8mb 53f 51f
9:54 10 14 mph 1010.8mb 53f 51f
9:48 11 14 mph 1010.8mb 53f 51f
9:42 11 14 mph 1010.8mb 53f 51f
9:36 8 13 mph 1010.8mb 53f 50f
9:30 5 11 mph 1010.8mb 53f 50f
9:24 9 10 mph 1010.7mb 53f 50f
9:18 9 11 mph 1010.7mb 53f 50f
9:12 7 9 mph 1010.7mb 53f 49f
9:06 7 9 mph 1010.7mb 53f 49f
9:00 8 10 mph 1010.7mb 53f 49f
8:54 8 11 mph 1010.7mb 53f 49f
8:48 8 11 mph 1010.7mb 53f 48f
8:42 8 11 mph 1010.6mb 53f 48f
8:36 6 11 mph 1010.6mb 53f 48f
8:30 7 11 mph 1010.6mb 53f 47f
8:24 7 10 mph 1010.5mb 53f 47f
8:18 7 10 mph 1010.4mb 53f 47f
8:12 8 10 mph 1010.4mb 53f 46f
8:06 6 8 mph 1010.5mb 53f 46f
8:00 6 9 mph 1010.4mb 53f 46f
7:54 5 9 mph 1010.4mb 53f 46f
7:48 6 11 mph 1010.4mb - -
7:42 9 13 mph 1010.5mb 53f 47f
7:36 6 13 mph 1010.3mb 53f 47f
7:30 6 9 mph 1010.2mb 53f 47f
7:24 7 11 mph 1010.1mb 53f 47f
7:18 7 10 mph 1010mb 53f 46f
7:12 8 11 mph 1009.9mb 53f 46f
7:06 9 13 mph 1009.9mb 53f 46f
7:00 9 13 mph 1009.8mb 53f 46f
6:54 8 10 mph 1009.9mb 53f 46f
6:48 7 13 mph 1009.8mb 53f 46f
6:42 7 10 mph 1009.8mb 53f 46f
6:36 7 10 mph 1009.8mb 53f 46f
6:30 8 13 mph 1009.8mb 53f 46f
6:24 9 13 mph 1009.8mb 53f 45f
6:18 8 11 mph 1009.8mb 53f 45f
6:12 7 11 mph 1009.8mb 53f 46f
6:06 7 9 mph 1009.8mb 53f 46f
6:00 6 8 mph 1009.8mb 53f 46f
5:54 9 14 mph 1009.8mb 53f 46f
5:48 8 14 mph 1009.7mb 53f 45f
5:42 8 11 mph 1009.6mb 53f 46f
5:36 8 13 mph 1009.7mb 53f 46f
5:30 10 16 mph 1009.6mb 53f 46f
5:24 10 14 mph 1009.6mb 53f 45f
5:18 8 13 mph 1009.6mb 53f 45f
5:12 9 11 mph 1009.6mb 53f 46f
5:06 6 9 mph 1009.6mb 53f 45f
5:00 7 11 mph 1009.6mb 53f 45f
4:54 10 13 mph 1009.6mb 53f 45f
4:48 7 9 mph 1009.6mb 53f 46f
4:42 8 10 mph 1009.6mb 53f 46f
4:36 6 14 mph 1009.6mb 53f 47f
4:30 11 16 mph 1009.6mb 53f 47f
4:24 6 8 mph 1009.6mb 53f 46f
4:18 5 6 mph 1009.7mb 53f 46f
4:12 3 7 mph 1009.7mb 53f 47f
4:06 3 6 mph 1009.7mb 53f 47f
4:00 5 6 mph 1009.7mb 53f 47f
3:54 3 5 mph 1009.7mb 53f 46f
3:48 2 6 mph 1009.7mb 53f 47f
3:42 5 8 mph 1009.7mb 53f 47f
3:36 9 14 mph 1009.7mb 53f 47f
3:30 6 10 mph 1009.6mb 53f 47f
3:24 6 9 mph 1009.5mb 53f 46f
3:18 5 9 mph 1009.5mb 53f 46f
3:12 7 9 mph 1009.5mb 53f 46f
3:06 6 11 mph 1009.6mb 53f 46f
3:00 7 11 mph 1009.8mb 53f 46f
2:54 5 7 mph 1009.9mb 53f 47f
2:48 1 6 mph - 53f 47f
2:42 6 8 mph - 53f 47f
2:36 5 9 mph - 53f 47f
2:30 6 10 mph - - -
2:24 7 9 mph - - -
2:18 6 9 mph - 53f 47f
2:12 6 9 mph - 53f 47f
2:06 6 8 mph - 53f 47f
2:00 7 11 mph 1009.9mb 53f 47f
1:54 9 21 mph 1009.9mb 53f 48f
1:48 14 17 mph 1010.1mb 53f 48f
1:42 14 17 mph 1010.1mb 53f 48f
1:36 15 25 mph 1010.1mb 53f 47f
1:30 14 18 mph 1010mb 53f 47f
1:24 7 11 mph 1009.9mb 53f 47f
1:18 8 15 mph 1009.8mb 53f 47f
1:12 9 15 mph 1009.9mb 53f 46f
1:06 8 13 mph 1009.9mb 53f 46f
1:00 8 11 mph 1010.1mb 53f 46f
12:54 8 15 mph 1010.2mb 53f 46f
12:48 8 14 mph 1010.3mb 53f 46f
12:42 6 9 mph 1010.1mb 53f 46f
12:36 7 11 mph 1010mb 53f 47f
12:30 7 11 mph 1010mb 53f 47f
12:24 8 13 mph 1010.1mb 53f 47f
12:18 9 14 mph 1010mb 53f 47f
12:12 9 14 mph 1010mb 53f 47f
12:06 8 14 mph 1010mb 53f 47f
12:00 8 14 mph 1010mb 53f 46f
Qui 04/23 11:48 10 13 mph 1009.9mb 53f 47f
11:30 8 13 mph 1010mb 53f 47f
11:06 8 10 mph 1010.3mb 53f 47f
10:54 9 14 mph 1010.3mb 53f 46f
10:48 8 10 mph 1010.4mb 53f 46f
10:42 9 11 mph 1010.4mb 53f 46f
10:36 8 17 mph 1010.5mb 53f 47f
10:30 14 18 mph 1010.5mb 53f 48f
10:24 8 14 mph 1010.7mb 53f 49f
10:18 5 6 mph 1010.5mb 53f 49f
10:12 5 7 mph 1010.6mb 53f 49f
10:00 5 7 mph - - -
9:54 5 7 mph 1010.6mb 53f 49f
9:48 5 10 mph 1010.6mb 53f 49f
9:42 6 8 mph 1010.7mb 53f 49f
9:36 6 9 mph 1010.7mb 53f 49f
9:30 6 9 mph 1010.6mb 53f 49f
9:24 7 9 mph 1010.6mb 53f 49f
9:18 6 10 mph 1010.6mb 53f 49f
9:12 7 9 mph 1010.6mb 53f 49f
8:54 6 9 mph 1010.6mb 53f 49f
8:48 5 9 mph 1010.6mb 53f 49f
8:42 5 8 mph 1010.6mb 53f 49f
8:30 7 13 mph 1010.6mb 53f -
8:24 7 9 mph 1010.7mb 53f 50f
8:18 7 9 mph 1010.6mb 53f 50f
8:12 7 10 mph 1010.6mb 54f 50f
8:06 8 9 mph 1010.6mb 54f 50f
8:00 7 10 mph 1010.7mb 54f 50f
7:54 9 14 mph 1010.6mb 53f 51f
7:48 10 14 mph 1010.7mb 53f 51f
7:42 10 14 mph 1010.8mb 53f 51f
7:36 10 13 mph 1010.7mb 53f 51f
7:30 9 14 mph 1010.8mb 53f 51f
7:24 13 14 mph 1010.7mb 53f 51f
7:06 13 16 mph 1010.9mb 54f 51f
7:00 11 17 mph 1010.9mb 53f 51f
6:54 14 18 mph 1010.8mb 53f 51f
6:48 13 15 mph 1010.8mb 53f 51f
6:42 11 17 mph 1010.8mb 53f 51f
6:36 13 17 mph 1010.9mb 53f 51f
6:30 15 17 mph 1010.9mb 53f 51f
6:24 14 17 mph 1010.9mb 53f 51f
6:18 14 16 mph 1010.9mb 53f 51f
6:12 14 16 mph 1010.9mb 53f 51f
6:06 13 16 mph 1011mb 53f 52f
6:00 11 16 mph 1011mb 53f 52f
5:54 14 17 mph 1011mb 53f 52f
5:48 10 14 mph 1011mb 54f 51f
5:42 11 14 mph 1011mb 54f 51f
5:36 13 16 mph 1011mb 54f 51f
5:30 11 14 mph 1011.1mb 54f 51f
5:24 11 15 mph 1011.1mb 54f 51f
5:18 11 16 mph 1011mb 54f 51f
5:12 13 20 mph 1011mb 54f 52f
5:06 17 20 mph 1011mb 54f 52f
5:00 15 17 mph 1011mb 54f 52f
4:54 14 17 mph 1011.1mb 54f 52f
4:48 14 17 mph 1011.1mb 54f 52f
4:42 15 18 mph 1011.2mb 54f 52f
4:36 16 21 mph 1011.2mb 54f 52f
4:30 17 20 mph 1011.2mb 54f 52f
4:24 13 20 mph 1011.1mb 54f 51f
4:18 13 17 mph 1011mb - -
4:12 13 17 mph 1011.1mb 54f 51f
4:06 13 17 mph 1011.1mb 54f 51f
4:00 10 16 mph 1011.1mb 54f 51f
3:54 13 15 mph 1011.1mb 54f 50f
3:48 11 17 mph 1011.1mb 54f 50f
3:42 9 11 mph 1011mb 54f 50f
3:36 10 14 mph 1011mb 54f 50f
3:30 11 14 mph 1011.1mb 54f 49f
3:24 11 16 mph 1011.1mb 54f 49f
3:18 11 21 mph 1011.1mb 54f 49f
3:12 11 16 mph 1011.1mb 54f 49f
3:06 13 18 mph 1011.2mb 54f 48f
3:00 13 25 mph 1011.1mb 54f 49f
2:54 17 25 mph 1011.1mb 54f 49f
2:48 13 26 mph 1011.2mb 54f -
2:42 14 21 mph 1011.1mb 54f 49f
2:36 14 21 mph 1011.2mb 54f 50f
2:30 8 17 mph 1011.2mb 54f 49f
2:24 10 18 mph 1011.2mb 54f 49f
2:18 10 15 mph 1011.3mb 54f 49f
2:12 13 16 mph 1011.3mb 54f 49f
2:06 8 16 mph 1011.4mb 54f 49f
2:00 8 16 mph 1011.4mb 54f 49f
1:54 6 11 mph 1011.5mb 54f 49f
1:48 1 3 mph - - -
1:42 2 5 mph 1011.5mb 54f 47f
1:36 2 5 mph 1011.6mb 54f 47f
1:30  -  3 mph 1011.6mb 54f 47f
1:24 1 2 mph 1011.7mb 54f 47f
1:18 2 5 mph 1011.8mb - -
1:12 1 3 mph 1011.9mb 54f 47f
1:06 2 6 mph 1012mb 54f 47f
1:00 3 6 mph 1011.9mb 54f 47f
12:54  -  2 mph 1012mb 54f 47f
12:48  -  1 mph - - -
12:42 2 5 mph 1012mb 54f 46f
12:36 1 6 mph 1012mb 54f 46f
12:30 6 9 mph 1012mb 54f 46f
12:24 5 7 mph 1012mb 54f 46f
12:18 1 5 mph 1012.1mb 54f -
12:12 1 3 mph 1012.1mb 54f 47f
12:06  -  3 mph 1012.3mb 54f 47f
12:00 2 5 mph 1012.2mb 54f 47f
11:54 3 5 mph 1012.4mb 54f 47f
11:48 2 5 mph 1012.4mb 53f 47f
11:42 2 3 mph 1012.4mb 53f 48f
11:36 2 5 mph 1012.5mb 53f 48f
11:30 2 6 mph 1012.5mb 53f 48f
11:24 1 5 mph 1012.4mb 53f 48f
11:18 5 7 mph 1012.5mb 53f 49f
11:12 6 9 mph 1012.5mb 53f 49f
11:06 7 14 mph 1012.5mb 53f 49f
11:00 5 10 mph 1012.4mb 53f 49f
10:54 8 13 mph 1012.5mb 53f 49f
10:36 8 13 mph 1012.7mb 53f 50f
10:30 7 10 mph 1012.8mb 53f 50f
10:24 8 14 mph 1012.9mb 53f 50f
10:18 9 14 mph - - -
10:12 9 16 mph 1012.8mb 53f 50f
10:06 9 14 mph 1012.9mb 53f 50f
10:00 8 17 mph 1012.9mb 53f 50f
9:54 11 16 mph 1013mb 53f 50f
9:48 10 14 mph 1013mb 53f 50f
9:36 7 14 mph 1013.3mb 53f 49f
9:30 6 11 mph 1013.5mb 53f 49f
9:24 9 13 mph 1013.5mb 53f 49f
9:18 8 11 mph 1013.6mb - -
9:12 6 8 mph 1013.7mb 53f 49f
9:06 9 13 mph 1013.8mb 53f 49f
9:00 7 10 mph 1013.9mb 53f 49f
8:54 6 9 mph 1014mb 53f 49f
8:36 7 11 mph 1014.2mb 53f 48f
8:30 8 11 mph 1014.3mb 53f 48f
8:24 7 10 mph 1014.4mb 53f 48f
8:18 6 9 mph 1014.5mb 53f 48f
8:12 6 8 mph 1014.5mb 53f 48f
8:06 7 9 mph 1014.6mb 53f 47f
8:00 6 8 mph 1014.7mb 53f 47f
7:54 7 9 mph 1014.8mb 53f 47f
7:48 7 9 mph 1014.8mb 53f 47f
7:36 6 8 mph 1014.9mb 53f 47f
7:30 6 7 mph 1014.9mb 53f 47f
7:24 6 8 mph 1015.1mb 53f 47f
7:18 6 8 mph 1015.1mb 53f 47f
7:12 6 7 mph 1015.1mb 53f 46f
7:06 6 7 mph 1015.2mb 53f 46f
7:00 6 9 mph 1015.3mb 53f 46f
6:54 6 8 mph 1015.3mb 53f 46f
6:48 6 8 mph 1015.4mb 53f 46f
6:42 7 9 mph 1015.5mb 53f 46f
6:36 7 11 mph 1015.5mb 53f 46f
6:30 7 9 mph 1015.6mb 53f 46f
6:24 7 8 mph 1015.7mb 53f 46f
6:18 8 10 mph 1015.6mb 53f 46f
6:12 7 9 mph 1015.7mb 53f 46f
6:06 7 9 mph 1015.7mb 53f 46f
6:00 6 8 mph 1015.7mb 53f 46f
5:54 6 9 mph 1015.8mb 53f 46f
5:48 7 9 mph 1015.9mb 53f 46f
5:42 6 10 mph 1016mb 53f 46f
5:36 7 9 mph 1016.1mb 53f 46f
5:30 7 9 mph 1016.2mb 53f 45f
5:24 6 9 mph 1016.2mb 53f 45f
5:18 7 8 mph 1016.3mb 53f 45f
5:12 7 9 mph 1016.3mb 53f 45f
5:06 7 9 mph 1016.4mb 53f 46f
5:00 8 9 mph 1016.4mb 53f 46f
4:54 8 9 mph 1016.6mb 53f 46f
4:48 8 10 mph 1016.7mb - -
4:42 9 11 mph 1016.8mb - -
4:36 8 10 mph 1016.8mb 60f 54f
4:30 8 10 mph 1016.8mb 60f 54f
4:00 7 10 mph 1017mb 54f 46f
3:54 8 10 mph 1017mb 54f 46f
3:48 6 9 mph 1017.1mb 54f 46f
3:42 6 9 mph 1017.2mb 54f 46f
3:36 7 9 mph 1017.2mb 54f 46f
3:30 7 8 mph 1017.4mb 54f 46f
3:24 7 9 mph 1017.3mb 54f 46f
3:18 6 9 mph 1017.4mb 54f 46f
3:12 6 8 mph 1017.4mb 54f 46f
3:06 6 10 mph 1017.5mb 54f 46f
3:00 6 9 mph 1017.5mb 54f 46f
2:54 7 8 mph 1017.5mb 54f 46f
2:48  -  mph - 54f -
2:42  -  mph - 54f -
2:36  -  mph - 54f -
2:30 5 8 mph 1017.9mb 54f 46f
2:24 6 7 mph 1017.9mb 54f 46f
2:18 5 7 mph - - -
2:12 5 7 mph - - -
2:06 3 6 mph - - -
2:00 5 8 mph 1018.2mb 54f 46f
1:54 5 6 mph 1018.2mb 54f 46f
1:48 5 6 mph 1018.3mb 54f 46f
1:42 5 7 mph 1018.3mb 54f 46f
1:36 5 6 mph 1018.4mb 54f 46f
1:30 2 3 mph 1018.5mb 54f 46f
1:24 2 3 mph 1018.7mb 54f 46f
1:18 3 6 mph 1018.7mb 54f 46f
1:12 5 6 mph 1018.7mb 54f 46f
1:06 3 5 mph 1018.9mb 54f 46f
1:00 3
mph
1019mb 54f 46f
12:54 1 2 mph 1019.1mb 54f 46f
12:48 2 3 mph 1019.2mb 54f 46f
12:42 2 3 mph 1019.2mb 54f 46f
12:36 2 3 mph 1019.3mb 54f 46f
12:30 2 3 mph 1019.3mb 54f 47f
12:24 2 3 mph 1019.4mb 54f 47f
12:18 1 3 mph 1019.4mb - -
12:12 1 3 mph 1019.5mb 54f 47f
12:06 1 2 mph 1019.5mb 54f 47f
12:00 2 3 mph 1019.5mb 54f 47f
Qua 04/22 11:54 1 2 mph 1019.4mb 54f 47f
11:48 2
mph
1019.4mb 54f 47f
11:36 1 2 mph 1019.6mb 54f 48f
11:24 2 3 mph 1019.7mb 54f 48f
10:54 1 2 mph 1019.8mb 54f 48f
10:48 2 5 mph 1019.8mb 54f 48f
10:42 3 5 mph 1019.8mb 54f 49f
10:36 2 6 mph 1019.9mb 54f 49f
10:30 3 6 mph 1019.9mb 54f 49f
10:24 5
mph
1020mb 53f 49f
10:06 5 7 mph 1020.2mb 54f 49f
10:00 5 7 mph 1020.2mb 54f 49f
9:54 6 7 mph 1020.3mb 54f 49f
9:48 5 8 mph 1020.4mb 54f 49f
9:42 5 7 mph 1020.4mb 54f 49f
9:36 5 7 mph 1020.5mb 54f 49f
9:30 6 8 mph 1020.5mb 54f 49f
9:24 5 7 mph 1020.5mb 54f 49f
9:18 5 8 mph 1020.5mb 54f 49f
9:12 7 9 mph 1020.6mb 54f 49f
9:06 7 9 mph 1020.6mb 54f 49f
9:00 7 9 mph 1020.6mb 54f 49f
8:54 6 8 mph 1020.6mb 54f 49f
8:48 6 9 mph 1020.6mb 54f 49f
8:42 6 8 mph 1020.6mb 54f 49f
8:36 5 8 mph 1020.6mb 54f 49f
8:30 3 8 mph 1020.6mb 54f 49f
8:24 7 8 mph 1020.6mb 54f 49f
8:18 6 7 mph 1020.7mb 54f 49f
8:12 6 8 mph 1020.8mb 54f 49f
8:06 7 10 mph 1020.8mb 54f 49f
8:00 8 9 mph 1020.9mb 54f 49f
7:54 7 10 mph 1020.8mb 54f 50f
7:48 7 10 mph 1020.9mb 54f 50f
7:42 8 14 mph 1020.9mb 54f 50f
7:36 9 13 mph 1020.9mb 54f 50f
7:30 8 11 mph 1021mb 54f 50f
7:24 8 11 mph 1021mb 54f 50f
7:18 9 11 mph 1021.2mb 54f 50f
7:12 10 14 mph 1021.2mb 54f 50f
7:06 9 15 mph 1021.3mb 54f 50f
7:00 10 14 mph 1021.2mb 54f 51f
6:54 13 15 mph 1021.1mb 54f 50f
6:48 14 18 mph 1021.2mb 54f 50f
6:42 15 17 mph 1021.3mb 54f 50f
6:36 15 18 mph 1021.5mb 54f 50f
6:30 14 17 mph 1021.5mb 55f 50f
6:24 14 16 mph 1021.5mb 54f 51f
6:18 13 15 mph 1021.6mb 54f 51f
6:12 14 17 mph 1021.8mb 54f 51f
6:06 10 14 mph 1021.9mb 54f 51f
6:00 13 15 mph 1022mb 54f 51f
5:54 11 15 mph 1022mb 54f 51f
5:48 11 16 mph 1022.1mb 54f 52f
5:42 11 17 mph 1022.2mb 55f 52f
5:36 11 15 mph 1022.2mb 55f 52f
5:30 10 15 mph 1022.2mb 55f 52f
5:24 13 21 mph 1022.2mb 55f 51f
5:18 10 15 mph 1022.2mb 54f 52f
5:12 13 22 mph 1022.3mb 54f 51f
5:06 9 14 mph 1022.3mb 54f 51f
5:00 11 14 mph 1022.4mb 54f 52f
4:54 15 20 mph 1022.4mb 55f 51f
4:48 11 17 mph - - -
4:42 14 17 mph 1022.7mb 55f 51f
4:36 13 16 mph 1022.8mb 54f 51f
4:30 13 17 mph 1022.8mb 55f 51f
4:24 13 16 mph 1022.8mb 55f 51f
4:18 15 17 mph 1022.8mb 55f 51f
4:06 15 17 mph 1022.9mb 55f 51f
4:00 14 17 mph 1022.9mb 54f 51f
3:54 15 17 mph 1022.9mb 55f 51f
3:48 14 16 mph 1022.9mb 55f 51f
3:42 14 17 mph 1023mb 55f 51f
3:36 15 17 mph 1023.1mb 55f 51f
3:30 15 17 mph 1023.2mb 55f 51f
3:24 15 18 mph 1023.3mb 55f 51f
3:18 15 17 mph 1023.2mb 55f 51f
3:12 15 17 mph 1023.2mb 55f 51f
3:00 13 16 mph 1023.4mb 54f 51f
2:54 14 16 mph 1023.5mb 54f 51f
2:48 13 17 mph 1023.6mb 54f 51f
2:42 15 18 mph 1023.7mb 54f 51f
2:36 14 17 mph 1023.7mb 55f 51f
2:30 15 17 mph 1023.6mb 55f 51f
2:24 14 17 mph 1023.7mb 55f 51f
2:18 15 18 mph 1023.8mb 55f 51f
2:12 14 16 mph 1023.7mb 54f 51f
2:06 14 16 mph 1023.7mb 54f 51f
2:00 14 16 mph 1023.8mb 55f 51f
1:54 14 16 mph 1023.8mb 55f 51f
1:48 13 18 mph - - -
1:42 15 18 mph 1024mb 55f 51f
1:36 14 15 mph 1024mb 54f 51f
1:30 15 17 mph 1023.9mb 54f 51f
1:24 11 16 mph 1023.8mb 54f 51f
1:18 11 15 mph 1023.8mb 54f 51f
1:12 14 16 mph 1023.8mb 54f 51f
1:06 14 15 mph 1024mb 54f 51f
1:00 14 17 mph 1024mb 54f 51f
12:54 10 14 mph 1024mb 54f 51f
12:36 7 10 mph 1023.9mb 54f 50f
12:30 5 7 mph 1024mb 54f 51f
12:24 7 11 mph 1024.1mb 54f 50f
12:18 9 14 mph - - -
12:12 13 15 mph 1024.1mb 54f 49f
12:06 14 18 mph 1024.3mb 55f 49f
12:00 16 17 mph 1024.3mb 55f 49f
11:54 6 10 mph 1024.4mb 55f 51f
11:48 8 11 mph 1024.4mb 55f 51f
11:42 9 15 mph 1024.4mb 55f 50f
11:36 11 15 mph 1024.2mb 55f 50f
11:30 10 13 mph 1024.2mb 55f 51f
11:24 9 11 mph 1024.2mb 54f 51f
11:18 9 11 mph 1024.1mb 54f 51f
11:12 9 10 mph 1024.1mb 54f 51f
11:06 6 9 mph 1024.1mb 54f 50f
11:00 6 9 mph 1024mb 54f 51f
10:54 3 5 mph 1024.1mb 54f 51f
10:48 6 9 mph 1024.1mb 54f 51f
10:42 6 10 mph 1024mb 54f 50f
10:36 9 15 mph 1024.1mb 54f 50f
10:30 8 10 mph 1024mb 54f 50f
10:24 5 9 mph 1024mb 54f 50f
10:18 8 13 mph 1024mb 54f 50f
10:12 10 14 mph 1024mb 54f 50f
10:06 11 16 mph 1024.1mb 54f 49f
10:00 11 14 mph 1024mb 54f 49f
9:54 11 14 mph 1024.1mb 54f 49f
9:48 8 13 mph 1024.1mb 54f 49f
9:42 9 13 mph 1024.1mb 54f 49f
9:36 7 10 mph 1024.2mb 54f 49f
9:30 8 13 mph 1024.1mb 54f 48f
9:24 9 15 mph 1024.2mb 54f 48f
9:18 14 17 mph 1024.1mb 54f 48f
9:12 15 17 mph 1024mb 54f 49f
9:06 13 17 mph 1024mb 54f 49f
9:00 10 14 mph 1024mb 54f 49f
8:54 9 13 mph 1024mb 54f 49f
8:48 8 10 mph 1024mb 54f 49f
8:42 9 11 mph 1023.9mb 54f 48f
8:36 10 17 mph 1023.9mb 54f 48f
8:30 17 20 mph 1024mb 54f 48f
8:24 13 14 mph 1024.1mb 54f 48f
8:18 8 13 mph 1024.1mb 54f 48f
8:12 6 8 mph 1024mb 54f 48f
8:06 2 3 mph 1023.9mb 54f 48f
8:00 2 6 mph 1023.8mb 54f 47f
7:54 2 5 mph 1023.8mb 54f 47f
7:48 3 5 mph 1023.9mb 54f 47f
7:42 3 5 mph 1023.9mb 54f 47f
7:36 3 6 mph 1023.8mb 54f 47f
7:30 2 5 mph 1023.8mb 54f 47f
7:24 3 5 mph 1023.9mb 54f 47f
7:18 3 5 mph 1023.8mb 54f 47f
7:12 2 7 mph 1023.8mb 54f 47f
7:06 6 8 mph 1023.8mb 54f 47f
7:00 5 9 mph 1023.7mb 54f 47f
6:54 6 7 mph 1023.7mb 54f 47f
6:48 6 8 mph 1023.6mb 54f 47f
6:42 5 6 mph 1023.5mb 54f 47f
6:36 2 5 mph 1023.5mb 54f 46f
6:30 2 7 mph 1023.4mb 54f 46f
6:24 8 9 mph 1023.5mb 54f 46f
6:18 1 3 mph 1023.6mb 54f 45f
6:12 2 3 mph 1023.5mb 54f 45f
6:06 1 2 mph 1023.5mb 54f 45f
6:00 2 3 mph 1023.5mb 54f 46f
5:54 3 7 mph 1023.6mb 54f 46f
5:48 5 9 mph 1023.6mb 54f 46f
5:42 6 8 mph 1023.6mb 54f 47f
5:36 6 8 mph 1023.6mb 54f 47f
5:30 7 9 mph 1023.6mb 54f 47f
5:24 6 8 mph 1023.5mb 54f 48f
5:18 3 6 mph 1023.5mb 54f 48f
5:12 6 8 mph 1023.4mb 54f 48f
5:06 8 9 mph 1023.4mb 54f 48f
5:00 5 7 mph 1023.4mb 54f 48f
4:54 2 5 mph 1023.3mb 54f 47f
4:48 2 3 mph 1023.3mb 54f 46f
4:42 1 6 mph 1023.3mb 54f 46f
4:36 5 8 mph 1023.3mb 54f 47f
4:30 7 9 mph 1023.3mb 54f 48f
4:24 7 8 mph 1023.4mb 54f 48f
4:18 5 8 mph 1023.4mb 54f 47f
4:12 7 8 mph 1023.4mb 54f 47f
4:06 6 9 mph 1023.5mb 54f 47f
4:00 6 8 mph 1023.4mb 54f 47f
3:54 7 9 mph 1023.4mb 54f 47f
3:48 7 9 mph 1023.4mb 54f 47f
3:42 6 10 mph 1023.3mb 54f 47f
3:36 11 14 mph 1023.5mb 54f 47f
3:30 9 11 mph 1023.4mb 54f 47f
3:24 8 13 mph 1023.4mb 54f 48f
3:18 10 14 mph 1023.3mb 54f 47f
3:12 13 18 mph 1023.1mb 54f 47f
3:06 15 18 mph 1023.3mb 54f 47f
3:00 9 11 mph 1023.2mb 54f 48f
2:54 8 13 mph 1023.1mb 54f 48f
2:48 11 13 mph 1023.1mb - -
2:42 11 15 mph 1023.1mb - -
2:36 10 17 mph 1023.1mb - -
2:30 13 17 mph 1023.2mb 54f 48f
2:24 11 15 mph 1023.2mb 54f 48f
2:18 10 14 mph 1023.1mb 54f 48f
2:12 11 18 mph 1023.2mb 54f 47f
2:06 10 14 mph 1023.2mb 54f 48f
2:00 8 10 mph 1023.1mb 54f 48f
1:54 10 13 mph 1023.1mb 54f 48f
1:48 9 11 mph 1023.1mb 54f 48f
1:42 11 13 mph 1023.1mb 54f 48f
1:36 11 15 mph 1023.2mb 54f 48f
1:30 13 15 mph 1023.3mb 54f 48f
1:24 10 21 mph 1023.2mb 54f 47f
1:18 17 21 mph 1023.4mb 54f 48f
1:12 9 13 mph 1023.2mb 54f 49f
1:06 11 13 mph 1023.1mb 54f 49f
1:00 11 14 mph 1023mb 54f 49f
12:54 9 11 mph 1023mb 54f 49f
12:48 9 13 mph 1023mb 54f 48f
12:42 9 14 mph 1023.1mb 54f 48f
12:36 9 14 mph 1023.1mb 54f 49f
12:30 11 14 mph 1023.1mb 54f 49f
12:24 11 13 mph 1022.9mb 54f 49f
12:18 10 13 mph 1022.9mb 54f 48f
12:12 11 16 mph 1022.9mb 54f 48f
12:06 16 20 mph 1023mb 54f 48f
12:00 10 14 mph - - -
Ter 04/21 11:54 11 16 mph - - -
11:24 11 17 mph 1022.9mb 54f 49f
11:06 8 14 mph 1022.7mb 54f 50f
10:54 9 15 mph 1022.7mb 54f 50f
10:48 9 11 mph 1022.7mb 54f 49f
10:42 7 10 mph 1022.6mb 54f 49f
10:36 11 15 mph 1022.6mb 54f 49f
10:30 11 16 mph 1022.6mb 54f 49f
10:24 10 20 mph 1022.6mb 54f 50f
10:18 15 22 mph 1022.5mb 54f 50f
10:12 11 15 mph 1022.5mb 54f 49f
10:06 10 13 mph 1022.5mb 54f 50f
10:00 8 10 mph 1022.5mb 54f 50f
9:54 9 14 mph 1022.4mb 54f 50f
9:48 9 13 mph 1022.3mb 54f 50f
9:42 9 13 mph 1022.3mb 54f 50f
9:36 9 16 mph 1022.4mb 54f 50f
9:30 14 18 mph 1022.4mb 54f 50f
9:24 13 17 mph 1022.3mb 54f 50f
9:18 10 14 mph - - -
9:12 13 15 mph 1022.2mb 54f 50f
9:06 8 13 mph 1022mb 54f 50f
9:00 9 14 mph 1022mb 54f 50f
8:54 13 16 mph 1021.9mb 54f 50f
8:48 14 18 mph 1021.9mb 54f 50f
8:42 14 23 mph 1021.8mb 54f 50f
8:36 10 20 mph 1021.7mb 55f 50f
8:30 13 16 mph 1021.6mb 54f 50f
8:24 14 17 mph 1021.5mb 54f 50f
8:18 14 20 mph 1021.4mb 54f 50f
8:12 14 21 mph 1021.3mb 54f 50f
8:06 16 21 mph 1021.3mb 54f 51f
8:00 15 24 mph 1021.3mb 54f 50f
7:54 14 22 mph 1021.2mb 54f 50f
7:48 15 22 mph 1021.1mb 54f 50f
7:42 16 22 mph 1021.1mb 54f 51f
7:36 13 21 mph 1021mb 54f 51f
7:30 16 21 mph 1021.1mb 55f 51f
7:24 16 23 mph 1020.9mb 55f 51f
7:18 17 22 mph 1020.9mb 55f 51f
7:12 16 22 mph 1020.8mb 55f 51f
7:06 15 20 mph 1020.8mb 55f 51f
7:00 14 20 mph 1020.8mb 55f 51f
6:54 15 23 mph 1020.8mb 55f 51f
6:48 20 24 mph 1020.7mb 55f 51f
6:42 16 22 mph 1020.7mb 55f 51f
6:36 17 26 mph 1020.7mb 55f 51f
6:30 21 25 mph 1020.7mb 55f 51f
6:24 18 26 mph 1020.7mb 55f 51f
6:18 14 26 mph 1020.7mb 55f 51f
6:12 20 23 mph 1020.6mb 55f 51f
6:06 14 24 mph 1020.6mb 55f 51f
6:00 16 23 mph 1020.5mb 55f 51f
5:54 17 20 mph 1020.5mb 55f 51f
5:48 15 20 mph 1020.5mb 55f 51f
5:42 20 22 mph 1020.4mb 55f 51f
5:36 18 30 mph 1020.4mb 55f 51f
5:30 21 26 mph 1020.4mb 55f 51f
5:24 18 25 mph 1020.4mb 55f 51f
5:18 20 24 mph 1020.4mb 55f 51f
5:12 18 23 mph 1020.4mb 55f 51f
5:06 20 26 mph 1020.4mb 55f 51f
5:00 15 18 mph 1020.3mb 55f 51f
4:54 15 21 mph 1020.3mb 55f 51f
4:48 20 25 mph 1020.2mb 55f 51f
4:42 15 21 mph 1020.2mb 55f 51f
4:36 15 23 mph 1020.1mb 55f 51f
4:30 17 23 mph 1020.1mb 55f 51f
4:24 17 20 mph 1020mb 55f 51f
4:18 16 22 mph 1020mb 55f 51f
4:12 18 26 mph 1020mb 55f 52f
4:06 18 24 mph 1020mb 55f 52f
4:00 16 20 mph 1019.9mb 55f 52f
3:54 14 22 mph 1019.8mb 55f 52f
3:48 17 30 mph 1019.8mb 55f 52f
3:42 17 28 mph 1019.7mb 55f 52f
3:36 20 28 mph 1019.7mb 55f 52f
3:30 17 22 mph 1019.6mb 55f 52f
3:24 14 21 mph 1019.6mb 55f 52f
3:18 16 20 mph 1019.6mb 55f 52f
3:12 16 20 mph 1019.5mb 55f 52f
3:06 15 20 mph 1019.4mb 55f 52f
3:00 16 22 mph 1019.3mb 55f 52f
2:54 16 20 mph 1019.3mb 55f 52f
2:48 15 22 mph 1019.2mb 55f 52f
2:42 15 18 mph 1019.2mb 55f 52f
2:36 16 21 mph 1019.1mb 55f 52f
2:30 14 20 mph 1019mb 55f 52f
2:24 16 21 mph 1018.9mb 55f 52f
2:18 16 18 mph 1018.8mb 55f 52f
2:12 17 21 mph 1018.8mb 55f 52f
2:06 17 24 mph 1018.7mb 55f 52f
2:00 17 21 mph 1018.7mb 55f 52f
1:54 14 21 mph 1018.6mb 55f 53f
1:48 13 16 mph 1018.6mb 55f 53f
1:42 11 20 mph 1018.6mb 55f 52f
1:36 17 22 mph 1018.5mb 55f 52f
1:30 13 17 mph 1018.5mb 55f 52f
1:24 16 20 mph 1018.4mb 55f 52f
1:18 11 17 mph 1018.3mb 55f 52f
1:12 11 15 mph 1018.2mb 55f 52f
1:06 13 20 mph 1018.2mb 55f 52f
1:00 14 18 mph 1018.2mb 55f 52f
12:54 10 20 mph 1018.1mb 55f 52f
12:48 15 20 mph 1018mb 55f 53f
12:42 8 14 mph 1018mb 55f 53f
12:36 10 15 mph 1017.9mb 55f 53f
12:30 14 16 mph 1018mb 55f 53f
12:24 10 11 mph 1017.9mb 55f 53f
12:18 9 14 mph 1017.9mb 55f 52f
12:12 13 15 mph 1017.8mb 55f 52f
12:06 11 15 mph 1017.8mb 55f 52f
12:00 10 14 mph 1017.7mb 55f 52f
11:54 13 14 mph 1017.7mb 55f 52f
11:48 11 17 mph 1017.6mb 55f 52f
11:42 11 15 mph 1017.6mb 55f 52f
11:36 14 17 mph 1017.5mb 55f 52f
11:30 14 18 mph 1017.5mb 55f 52f
11:24 10 16 mph 1017.5mb 55f 53f
11:18 14 17 mph 1017.4mb 55f 53f
11:12 14 15 mph 1017.3mb 55f 53f
11:06 14 16 mph 1017.2mb 55f 53f
11:00 8 15 mph 1017.2mb 55f 52f
10:54 9 14 mph 1017.1mb 55f 53f
10:48 9 10 mph 1017mb 55f 53f
10:42 6 11 mph 1017mb 55f 52f
10:36 9 14 mph 1017mb 55f 52f
10:30 9 14 mph 1016.9mb 55f 52f
10:24 11 14 mph 1016.8mb 55f 52f
10:18 9 13 mph 1016.8mb 55f 52f
10:12 11 14 mph 1016.7mb 55f 52f
10:06 10 14 mph 1016.6mb 55f 52f
10:00 10 15 mph 1016.5mb 55f 52f
9:54 11 14 mph 1016.4mb 55f 52f
9:48 10 14 mph 1016.3mb 55f 52f
9:42 10 15 mph 1016.2mb 55f 52f
9:36 10 15 mph 1016.1mb 55f 52f
9:30 10 16 mph 1016mb 55f 52f
9:24 11 14 mph 1016mb 55f 52f
9:18 9 15 mph 1015.9mb 55f 53f
9:12 11 14 mph 1015.8mb 55f 53f
9:06 11 13 mph 1015.7mb 55f 53f
9:00 11 14 mph 1015.6mb 55f 53f
8:54 6 8 mph 1015.5mb 55f 53f
8:48 7 8 mph 1015.4mb 55f 52f
8:42 7 10 mph 1015.4mb 54f 52f
8:36 8 11 mph 1015.4mb 54f 52f
8:30 7 9 mph 1015.4mb 54f 52f
8:24 8 10 mph 1015.4mb 54f 53f
8:18 7 10 mph 1015.3mb 54f 52f
8:12 6 8 mph 1015.4mb 54f 52f
8:06 7 8 mph 1015.3mb 54f 52f
8:00 7 8 mph 1015.3mb 54f 52f
7:54 7 9 mph 1015.3mb 54f 52f
7:48 8
mph
1015.3mb 55f 52f
7:42 7 8 mph 1015.3mb 54f 51f
7:36 8 9 mph 1015.3mb 55f 51f
7:30 7 8 mph 1015.2mb 55f 51f
7:24 7 10 mph 1015.1mb 55f 51f
7:18 9 10 mph 1015.1mb 55f 51f
7:12 8 10 mph 1015.1mb 55f 51f
7:06 8 10 mph 1015mb 55f 51f
7:00 8 10 mph 1015mb 55f 51f
6:54 5 8 mph 1015mb 55f 51f
6:48 7 9 mph 1015mb 54f 51f
6:42 5 8 mph 1015mb 54f 51f
6:36 6 9 mph 1014.9mb 54f 51f
6:30 9 10 mph 1014.8mb 55f 51f
6:24 9 11 mph 1014.8mb 55f 51f
6:18 9 11 mph 1014.7mb 55f 51f
6:12 9 10 mph 1014.6mb 55f 52f
6:06 7 10 mph 1014.5mb 55f 52f
6:00 9 13 mph 1014.4mb 55f 52f
5:54 8 10 mph 1014.4mb 55f 52f
5:48 9 11 mph 1014.3mb 55f 52f
5:42 9 11 mph 1014.2mb 55f 52f
5:36 9 10 mph 1014.2mb 55f 52f
5:30 9 13 mph 1014.2mb 55f 52f
5:24 10 11 mph 1014.1mb 55f 52f
5:18 10 11 mph 1014.1mb 55f 52f
5:12 9 11 mph 1014.1mb 55f 52f
5:06 8 10 mph 1014.1mb 55f 52f
5:00 7 8 mph 1014.1mb 55f 52f
4:54 7 9 mph 1014mb 54f 52f
4:48 7 8 mph 1014mb 54f 52f
4:42 6 7 mph 1014mb 54f 52f
4:36 7 9 mph 1014mb 54f 52f
4:30 8 9 mph 1014mb 55f 52f
4:24 7 9 mph 1014mb 55f 53f
4:18 6 8 mph 1014mb 54f 53f
4:12 6 8 mph 1014mb 54f 53f
4:06 5 8 mph 1014mb 54f 53f
4:00 8 9 mph 1014.1mb 54f 53f
3:54 9 11 mph 1014.1mb 54f 53f
3:48 8 10 mph 1014mb 54f 53f
3:42 8 10 mph 1014mb 54f 53f
3:36 9 13 mph 1014mb 55f 53f
3:30 10 11 mph 1014mb 55f 53f
3:24 8 10 mph 1013.9mb 55f 53f
3:18 9 13 mph 1014mb 55f 53f
3:12 10 11 mph 1013.9mb 55f 53f
3:06 9 13 mph 1013.9mb 55f 53f
3:00 10 13 mph 1013.9mb 55f 53f
2:54 11 13 mph 1013.8mb 55f 53f
2:48 10 14 mph 1013.8mb 55f 53f
2:42 13 15 mph 1013.8mb 55f 53f
2:36 11 15 mph 1013.8mb 55f 53f
2:30 11 13 mph 1013.8mb 55f -
2:24 10 13 mph 1013.8mb 55f -
2:18 10 13 mph 1013.7mb 55f 53f
2:12 1 3 mph 1013.7mb 55f 51f